sensor_id;sensor_type;location;lat;lon;timestamp;temperature;humidity
18412;DHT22;27097;51.738;19.472;2023-03-29T00:00:21;19.70;88.80
18412;DHT22;27097;51.738;19.472;2023-03-29T00:02:48;19.70;89.00
18412;DHT22;27097;51.738;19.472;2023-03-29T00:05:19;19.70;90.00
18412;DHT22;27097;51.738;19.472;2023-03-29T00:07:47;19.70;90.00
18412;DHT22;27097;51.738;19.472;2023-03-29T00:10:19;19.70;90.00
18412;DHT22;27097;51.738;19.472;2023-03-29T00:12:48;19.70;90.10
18412;DHT22;27097;51.738;19.472;2023-03-29T00:15:17;19.70;90.20
18412;DHT22;27097;51.738;19.472;2023-03-29T00:17:43;19.70;90.60
18412;DHT22;27097;51.738;19.472;2023-03-29T00:20:11;19.70;90.50
18412;DHT22;27097;51.738;19.472;2023-03-29T00:22:40;19.70;90.40
18412;DHT22;27097;51.738;19.472;2023-03-29T00:25:07;19.70;90.60
18412;DHT22;27097;51.738;19.472;2023-03-29T00:27:35;19.70;90.70
18412;DHT22;27097;51.738;19.472;2023-03-29T00:30:02;19.70;91.10
18412;DHT22;27097;51.738;19.472;2023-03-29T00:32:30;19.70;91.20
18412;DHT22;27097;51.738;19.472;2023-03-29T00:34:57;19.70;91.30
18412;DHT22;27097;51.738;19.472;2023-03-29T00:37:25;19.70;91.20
18412;DHT22;27097;51.738;19.472;2023-03-29T00:39:56;19.70;91.20
18412;DHT22;27097;51.738;19.472;2023-03-29T00:42:24;19.70;91.00
18412;DHT22;27097;51.738;19.472;2023-03-29T00:44:55;19.70;91.30
18412;DHT22;27097;51.738;19.472;2023-03-29T00:47:26;19.70;91.70
18412;DHT22;27097;51.738;19.472;2023-03-29T00:49:54;19.70;91.60
18412;DHT22;27097;51.738;19.472;2023-03-29T00:52:24;19.70;91.70
18412;DHT22;27097;51.738;19.472;2023-03-29T00:54:57;19.70;91.60
18412;DHT22;27097;51.738;19.472;2023-03-29T00:57:25;19.70;91.60
18412;DHT22;27097;51.738;19.472;2023-03-29T00:59:54;19.70;91.50
18412;DHT22;27097;51.738;19.472;2023-03-29T01:02:24;19.70;91.70
18412;DHT22;27097;51.738;19.472;2023-03-29T01:04:56;19.70;91.70
18412;DHT22;27097;51.738;19.472;2023-03-29T01:07:27;19.70;91.70
18412;DHT22;27097;51.738;19.472;2023-03-29T01:10:02;19.70;91.70
18412;DHT22;27097;51.738;19.472;2023-03-29T01:12:36;19.70;91.90
18412;DHT22;27097;51.738;19.472;2023-03-29T01:15:07;19.70;91.80
18412;DHT22;27097;51.738;19.472;2023-03-29T01:17:35;19.70;91.80
18412;DHT22;27097;51.738;19.472;2023-03-29T01:20:07;19.70;92.00
18412;DHT22;27097;51.738;19.472;2023-03-29T01:22:42;19.70;91.80
18412;DHT22;27097;51.738;19.472;2023-03-29T01:25:19;19.70;91.90
18412;DHT22;27097;51.738;19.472;2023-03-29T01:27:54;19.70;92.10
18412;DHT22;27097;51.738;19.472;2023-03-29T01:30:25;19.70;92.10
18412;DHT22;27097;51.738;19.472;2023-03-29T01:32:56;19.70;92.20
18412;DHT22;27097;51.738;19.472;2023-03-29T01:35:30;19.70;92.00
18412;DHT22;27097;51.738;19.472;2023-03-29T01:38:05;19.70;92.30
18412;DHT22;27097;51.738;19.472;2023-03-29T01:40:33;19.70;92.30
18412;DHT22;27097;51.738;19.472;2023-03-29T01:43:10;19.70;92.50
18412;DHT22;27097;51.738;19.472;2023-03-29T01:45:42;19.70;92.10
18412;DHT22;27097;51.738;19.472;2023-03-29T01:48:17;19.70;92.30
18412;DHT22;27097;51.738;19.472;2023-03-29T01:50:48;19.70;92.20
18412;DHT22;27097;51.738;19.472;2023-03-29T01:53:18;19.70;92.00
18412;DHT22;27097;51.738;19.472;2023-03-29T01:55:50;19.70;91.80
18412;DHT22;27097;51.738;19.472;2023-03-29T01:58:21;19.70;92.20
18412;DHT22;27097;51.738;19.472;2023-03-29T02:00:50;19.70;92.40
18412;DHT22;27097;51.738;19.472;2023-03-29T02:03:20;19.70;92.50
18412;DHT22;27097;51.738;19.472;2023-03-29T02:05:50;19.70;92.60
18412;DHT22;27097;51.738;19.472;2023-03-29T02:08:19;19.70;92.80
18412;DHT22;27097;51.738;19.472;2023-03-29T02:10:47;19.70;92.40
18412;DHT22;27097;51.738;19.472;2023-03-29T02:13:14;19.70;92.70
18412;DHT22;27097;51.738;19.472;2023-03-29T02:15:44;19.70;92.70
18412;DHT22;27097;51.738;19.472;2023-03-29T02:18:12;19.70;92.50
18412;DHT22;27097;51.738;19.472;2023-03-29T02:20:43;19.70;92.90
18412;DHT22;27097;51.738;19.472;2023-03-29T02:23:14;19.70;92.80
18412;DHT22;27097;51.738;19.472;2023-03-29T02:25:46;19.70;93.00
18412;DHT22;27097;51.738;19.472;2023-03-29T02:28:15;19.70;93.20
18412;DHT22;27097;51.738;19.472;2023-03-29T02:30:49;19.70;93.00
18412;DHT22;27097;51.738;19.472;2023-03-29T02:33:22;19.70;92.80
18412;DHT22;27097;51.738;19.472;2023-03-29T02:35:53;19.70;92.70
18412;DHT22;27097;51.738;19.472;2023-03-29T02:38:23;19.70;92.80
18412;DHT22;27097;51.738;19.472;2023-03-29T02:40:53;19.70;93.00
18412;DHT22;27097;51.738;19.472;2023-03-29T02:43:22;19.70;93.10
18412;DHT22;27097;51.738;19.472;2023-03-29T02:45:51;19.70;93.20
18412;DHT22;27097;51.738;19.472;2023-03-29T02:48:21;19.60;93.20
18412;DHT22;27097;51.738;19.472;2023-03-29T02:50:51;19.70;93.30
18412;DHT22;27097;51.738;19.472;2023-03-29T02:53:22;19.60;93.20
18412;DHT22;27097;51.738;19.472;2023-03-29T02:55:50;19.60;93.00
18412;DHT22;27097;51.738;19.472;2023-03-29T02:58:17;19.60;93.30
18412;DHT22;27097;51.738;19.472;2023-03-29T03:00:46;19.70;93.20
18412;DHT22;27097;51.738;19.472;2023-03-29T03:03:15;19.60;93.20
18412;DHT22;27097;51.738;19.472;2023-03-29T03:05:42;19.60;93.10
18412;DHT22;27097;51.738;19.472;2023-03-29T03:08:09;19.60;93.30
18412;DHT22;27097;51.738;19.472;2023-03-29T03:10:36;19.60;93.40
18412;DHT22;27097;51.738;19.472;2023-03-29T03:13:03;19.60;93.00
18412;DHT22;27097;51.738;19.472;2023-03-29T03:15:31;19.60;93.40
18412;DHT22;27097;51.738;19.472;2023-03-29T03:18:00;19.60;93.40
18412;DHT22;27097;51.738;19.472;2023-03-29T03:20:29;19.60;93.40
18412;DHT22;27097;51.738;19.472;2023-03-29T03:22:56;19.60;93.70
18412;DHT22;27097;51.738;19.472;2023-03-29T03:25:23;19.60;93.50
18412;DHT22;27097;51.738;19.472;2023-03-29T03:27:50;19.60;93.40
18412;DHT22;27097;51.738;19.472;2023-03-29T03:30:17;19.60;93.40
18412;DHT22;27097;51.738;19.472;2023-03-29T03:32:45;19.60;93.40
18412;DHT22;27097;51.738;19.472;2023-03-29T03:35:14;19.60;93.50
18412;DHT22;27097;51.738;19.472;2023-03-29T03:37:42;19.60;93.40
18412;DHT22;27097;51.738;19.472;2023-03-29T03:40:10;19.60;93.40
18412;DHT22;27097;51.738;19.472;2023-03-29T03:42:38;19.60;93.30
18412;DHT22;27097;51.738;19.472;2023-03-29T03:45:07;19.60;93.30
18412;DHT22;27097;51.738;19.472;2023-03-29T03:47:34;19.60;93.40
18412;DHT22;27097;51.738;19.472;2023-03-29T03:50:02;19.60;93.30
18412;DHT22;27097;51.738;19.472;2023-03-29T03:52:29;19.60;93.10
18412;DHT22;27097;51.738;19.472;2023-03-29T03:54:57;19.60;93.00
18412;DHT22;27097;51.738;19.472;2023-03-29T03:57:24;19.60;93.20
18412;DHT22;27097;51.738;19.472;2023-03-29T03:59:51;19.60;93.30
18412;DHT22;27097;51.738;19.472;2023-03-29T04:02:18;19.60;93.50
18412;DHT22;27097;51.738;19.472;2023-03-29T04:04:46;19.60;93.30
18412;DHT22;27097;51.738;19.472;2023-03-29T04:07:13;19.60;93.10
18412;DHT22;27097;51.738;19.472;2023-03-29T04:09:42;19.60;93.30
18412;DHT22;27097;51.738;19.472;2023-03-29T04:12:11;19.60;93.10
18412;DHT22;27097;51.738;19.472;2023-03-29T04:14:37;19.60;92.90
18412;DHT22;27097;51.738;19.472;2023-03-29T04:17:04;19.60;93.10
18412;DHT22;27097;51.738;19.472;2023-03-29T04:19:32;19.60;93.20
18412;DHT22;27097;51.738;19.472;2023-03-29T04:21:58;19.60;93.10
18412;DHT22;27097;51.738;19.472;2023-03-29T04:24:25;19.60;93.10
18412;DHT22;27097;51.738;19.472;2023-03-29T04:26:52;19.60;93.10
18412;DHT22;27097;51.738;19.472;2023-03-29T04:29:20;19.60;93.00
18412;DHT22;27097;51.738;19.472;2023-03-29T04:31:47;19.60;93.20
18412;DHT22;27097;51.738;19.472;2023-03-29T04:34:14;19.60;93.00
18412;DHT22;27097;51.738;19.472;2023-03-29T04:36:41;19.60;93.40
18412;DHT22;27097;51.738;19.472;2023-03-29T04:39:08;19.60;93.10
18412;DHT22;27097;51.738;19.472;2023-03-29T04:41:35;19.50;93.50
18412;DHT22;27097;51.738;19.472;2023-03-29T04:44:02;19.60;93.80
18412;DHT22;27097;51.738;19.472;2023-03-29T04:46:30;19.60;93.70
18412;DHT22;27097;51.738;19.472;2023-03-29T04:48:57;19.60;93.90
18412;DHT22;27097;51.738;19.472;2023-03-29T04:51:24;19.60;94.20
18412;DHT22;27097;51.738;19.472;2023-03-29T04:53:52;19.60;94.20
18412;DHT22;27097;51.738;19.472;2023-03-29T04:56:18;19.60;94.20
18412;DHT22;27097;51.738;19.472;2023-03-29T04:58:45;19.60;94.20
18412;DHT22;27097;51.738;19.472;2023-03-29T05:01:12;19.60;94.40
18412;DHT22;27097;51.738;19.472;2023-03-29T05:03:41;19.60;94.40
18412;DHT22;27097;51.738;19.472;2023-03-29T05:06:09;19.60;94.50
18412;DHT22;27097;51.738;19.472;2023-03-29T05:08:37;19.60;94.60
18412;DHT22;27097;51.738;19.472;2023-03-29T05:11:05;19.60;94.60
18412;DHT22;27097;51.738;19.472;2023-03-29T05:13:32;19.60;94.60
18412;DHT22;27097;51.738;19.472;2023-03-29T05:16:00;19.60;94.90
18412;DHT22;27097;51.738;19.472;2023-03-29T05:18:27;19.60;95.00
18412;DHT22;27097;51.738;19.472;2023-03-29T05:20:56;19.60;95.20
18412;DHT22;27097;51.738;19.472;2023-03-29T05:23:24;19.60;92.90
18412;DHT22;27097;51.738;19.472;2023-03-29T05:25:51;19.60;91.10
18412;DHT22;27097;51.738;19.472;2023-03-29T05:28:18;19.60;90.10
18412;DHT22;27097;51.738;19.472;2023-03-29T05:30:46;19.60;88.50
18412;DHT22;27097;51.738;19.472;2023-03-29T05:33:13;19.60;86.90
18412;DHT22;27097;51.738;19.472;2023-03-29T05:35:40;19.60;87.80
18412;DHT22;27097;51.738;19.472;2023-03-29T05:38:08;19.60;91.40
18412;DHT22;27097;51.738;19.472;2023-03-29T05:40:35;19.60;93.10
18412;DHT22;27097;51.738;19.472;2023-03-29T05:43:01;19.60;93.00
18412;DHT22;27097;51.738;19.472;2023-03-29T05:45:28;19.70;90.00
18412;DHT22;27097;51.738;19.472;2023-03-29T05:47:57;19.70;92.20
18412;DHT22;27097;51.738;19.472;2023-03-29T05:50:24;19.70;91.90
18412;DHT22;27097;51.738;19.472;2023-03-29T05:52:51;19.70;92.50
18412;DHT22;27097;51.738;19.472;2023-03-29T05:55:19;19.70;92.10
18412;DHT22;27097;51.738;19.472;2023-03-29T05:57:46;19.80;91.80
18412;DHT22;27097;51.738;19.472;2023-03-29T06:00:13;19.80;91.00
18412;DHT22;27097;51.738;19.472;2023-03-29T06:02:48;19.80;85.90
18412;DHT22;27097;51.738;19.472;2023-03-29T06:05:17;19.80;88.50
18412;DHT22;27097;51.738;19.472;2023-03-29T06:07:45;19.80;91.90
18412;DHT22;27097;51.738;19.472;2023-03-29T06:10:13;19.90;92.00
18412;DHT22;27097;51.738;19.472;2023-03-29T06:12:41;19.90;91.30
18412;DHT22;27097;51.738;19.472;2023-03-29T06:15:10;19.90;90.70
18412;DHT22;27097;51.738;19.472;2023-03-29T06:17:37;19.90;92.10
18412;DHT22;27097;51.738;19.472;2023-03-29T06:20:05;19.90;91.70
18412;DHT22;27097;51.738;19.472;2023-03-29T06:22:35;20.00;91.80
18412;DHT22;27097;51.738;19.472;2023-03-29T06:25:02;20.00;91.80
18412;DHT22;27097;51.738;19.472;2023-03-29T06:27:29;20.00;91.50
18412;DHT22;27097;51.738;19.472;2023-03-29T06:30:00;20.00;91.30
18412;DHT22;27097;51.738;19.472;2023-03-29T06:32:28;20.00;91.00
18412;DHT22;27097;51.738;19.472;2023-03-29T06:34:55;20.10;90.70
18412;DHT22;27097;51.738;19.472;2023-03-29T06:37:22;20.10;90.50
18412;DHT22;27097;51.738;19.472;2023-03-29T06:39:49;20.10;90.70
18412;DHT22;27097;51.738;19.472;2023-03-29T06:42:17;20.10;90.00
18412;DHT22;27097;51.738;19.472;2023-03-29T06:44:44;20.20;90.30
18412;DHT22;27097;51.738;19.472;2023-03-29T06:47:13;20.20;90.10
18412;DHT22;27097;51.738;19.472;2023-03-29T06:49:41;20.20;89.50
18412;DHT22;27097;51.738;19.472;2023-03-29T06:52:08;20.20;89.30
18412;DHT22;27097;51.738;19.472;2023-03-29T06:54:35;20.20;90.20
18412;DHT22;27097;51.738;19.472;2023-03-29T06:57:03;20.20;89.50
18412;DHT22;27097;51.738;19.472;2023-03-29T06:59:30;20.20;88.50
18412;DHT22;27097;51.738;19.472;2023-03-29T07:01:57;20.20;87.20
18412;DHT22;27097;51.738;19.472;2023-03-29T07:04:26;20.30;86.10
18412;DHT22;27097;51.738;19.472;2023-03-29T07:06:52;20.30;84.50
18412;DHT22;27097;51.738;19.472;2023-03-29T07:09:26;20.30;85.00
18412;DHT22;27097;51.738;19.472;2023-03-29T07:11:54;20.30;86.80
18412;DHT22;27097;51.738;19.472;2023-03-29T07:14:21;20.40;88.00
18412;DHT22;27097;51.738;19.472;2023-03-29T07:16:50;20.40;86.90
18412;DHT22;27097;51.738;19.472;2023-03-29T07:19:17;20.40;86.00
18412;DHT22;27097;51.738;19.472;2023-03-29T07:21:48;20.50;84.10
18412;DHT22;27097;51.738;19.472;2023-03-29T07:24:15;20.50;87.00
18412;DHT22;27097;51.738;19.472;2023-03-29T07:26:43;20.50;85.80
18412;DHT22;27097;51.738;19.472;2023-03-29T07:29:11;20.60;84.90
18412;DHT22;27097;51.738;19.472;2023-03-29T07:31:38;20.60;84.10
18412;DHT22;27097;51.738;19.472;2023-03-29T07:34:06;20.70;84.00
18412;DHT22;27097;51.738;19.472;2023-03-29T07:36:35;20.70;83.80
18412;DHT22;27097;51.738;19.472;2023-03-29T07:39:05;20.70;83.60
18412;DHT22;27097;51.738;19.472;2023-03-29T07:41:33;20.80;84.10
18412;DHT22;27097;51.738;19.472;2023-03-29T07:44:00;20.80;84.00
18412;DHT22;27097;51.738;19.472;2023-03-29T07:46:33;20.90;83.90
18412;DHT22;27097;51.738;19.472;2023-03-29T07:49:01;20.90;84.40
18412;DHT22;27097;51.738;19.472;2023-03-29T07:51:28;21.00;84.10
18412;DHT22;27097;51.738;19.472;2023-03-29T07:53:54;21.00;83.70
18412;DHT22;27097;51.738;19.472;2023-03-29T07:56:23;21.10;84.10
18412;DHT22;27097;51.738;19.472;2023-03-29T07:58:50;21.00;84.10
18412;DHT22;27097;51.738;19.472;2023-03-29T08:01:17;21.10;85.60
18412;DHT22;27097;51.738;19.472;2023-03-29T08:03:44;21.10;84.40
18412;DHT22;27097;51.738;19.472;2023-03-29T08:06:11;21.10;84.40
18412;DHT22;27097;51.738;19.472;2023-03-29T08:08:40;21.20;84.40
18412;DHT22;27097;51.738;19.472;2023-03-29T08:11:07;21.20;85.00
18412;DHT22;27097;51.738;19.472;2023-03-29T08:13:36;21.20;86.50
18412;DHT22;27097;51.738;19.472;2023-03-29T08:16:03;21.20;85.80
18412;DHT22;27097;51.738;19.472;2023-03-29T08:18:30;21.20;85.20
18412;DHT22;27097;51.738;19.472;2023-03-29T08:20:57;21.20;84.60
18412;DHT22;27097;51.738;19.472;2023-03-29T08:23:23;21.20;85.20
18412;DHT22;27097;51.738;19.472;2023-03-29T08:25:50;21.20;84.70
18412;DHT22;27097;51.738;19.472;2023-03-29T08:28:18;21.10;78.60
18412;DHT22;27097;51.738;19.472;2023-03-29T08:30:46;21.10;80.50
18412;DHT22;27097;51.738;19.472;2023-03-29T08:33:14;21.00;78.70
18412;DHT22;27097;51.738;19.472;2023-03-29T08:35:41;21.00;73.70
18412;DHT22;27097;51.738;19.472;2023-03-29T08:38:08;20.90;70.60
18412;DHT22;27097;51.738;19.472;2023-03-29T08:40:35;20.90;78.00
18412;DHT22;27097;51.738;19.472;2023-03-29T08:43:43;20.80;66.20
18412;DHT22;27097;51.738;19.472;2023-03-29T08:46:22;20.80;75.50
18412;DHT22;27097;51.738;19.472;2023-03-29T08:48:54;20.80;72.40
18412;DHT22;27097;51.738;19.472;2023-03-29T08:51:26;20.80;70.50
18412;DHT22;27097;51.738;19.472;2023-03-29T08:53:57;20.80;69.20
18412;DHT22;27097;51.738;19.472;2023-03-29T08:56:27;20.80;67.00
18412;DHT22;27097;51.738;19.472;2023-03-29T08:58:55;20.80;67.60
18412;DHT22;27097;51.738;19.472;2023-03-29T09:01:26;20.80;66.80
18412;DHT22;27097;51.738;19.472;2023-03-29T09:04:01;20.80;64.40
18412;DHT22;27097;51.738;19.472;2023-03-29T09:06:29;20.70;66.10
18412;DHT22;27097;51.738;19.472;2023-03-29T09:08:56;20.70;64.80
18412;DHT22;27097;51.738;19.472;2023-03-29T09:11:36;20.80;64.80
18412;DHT22;27097;51.738;19.472;2023-03-29T09:14:28;20.80;65.40
18412;DHT22;27097;51.738;19.472;2023-03-29T09:17:08;20.80;67.30
18412;DHT22;27097;51.738;19.472;2023-03-29T09:19:44;20.80;65.60
18412;DHT22;27097;51.738;19.472;2023-03-29T09:22:17;20.80;64.10
18412;DHT22;27097;51.738;19.472;2023-03-29T09:24:56;20.80;64.50
18412;DHT22;27097;51.738;19.472;2023-03-29T09:27:26;20.80;63.80
18412;DHT22;27097;51.738;19.472;2023-03-29T09:30:05;20.80;67.20
18412;DHT22;27097;51.738;19.472;2023-03-29T09:32:40;20.80;62.70
18412;DHT22;27097;51.738;19.472;2023-03-29T09:35:13;20.80;65.30
18412;DHT22;27097;51.738;19.472;2023-03-29T09:37:43;20.80;57.90
18412;DHT22;27097;51.738;19.472;2023-03-29T09:40:15;20.80;62.60
18412;DHT22;27097;51.738;19.472;2023-03-29T09:42:44;20.80;63.90
18412;DHT22;27097;51.738;19.472;2023-03-29T09:45:12;20.70;63.70
18412;DHT22;27097;51.738;19.472;2023-03-29T09:47:44;20.70;64.60
18412;DHT22;27097;51.738;19.472;2023-03-29T09:50:14;20.70;59.20
18412;DHT22;27097;51.738;19.472;2023-03-29T09:52:42;20.70;58.30
18412;DHT22;27097;51.738;19.472;2023-03-29T09:55:12;20.70;61.60
18412;DHT22;27097;51.738;19.472;2023-03-29T09:57:40;20.70;64.40
18412;DHT22;27097;51.738;19.472;2023-03-29T10:00:09;20.70;63.80
18412;DHT22;27097;51.738;19.472;2023-03-29T10:02:36;20.70;61.70
18412;DHT22;27097;51.738;19.472;2023-03-29T10:05:06;20.70;59.80
18412;DHT22;27097;51.738;19.472;2023-03-29T10:07:38;20.70;62.20
18412;DHT22;27097;51.738;19.472;2023-03-29T10:10:10;20.70;60.60
18412;DHT22;27097;51.738;19.472;2023-03-29T10:12:46;20.70;59.90
18412;DHT22;27097;51.738;19.472;2023-03-29T10:15:16;20.80;63.00
18412;DHT22;27097;51.738;19.472;2023-03-29T10:17:43;20.80;60.90
18412;DHT22;27097;51.738;19.472;2023-03-29T10:20:15;20.80;59.40
18412;DHT22;27097;51.738;19.472;2023-03-29T10:22:47;20.80;56.20
18412;DHT22;27097;51.738;19.472;2023-03-29T10:25:16;20.80;59.80
18412;DHT22;27097;51.738;19.472;2023-03-29T10:27:44;20.80;61.00
18412;DHT22;27097;51.738;19.472;2023-03-29T10:30:19;20.80;61.60
18412;DHT22;27097;51.738;19.472;2023-03-29T10:32:52;20.80;61.80
18412;DHT22;27097;51.738;19.472;2023-03-29T10:35:24;20.80;60.40
18412;DHT22;27097;51.738;19.472;2023-03-29T10:37:55;20.80;59.10
18412;DHT22;27097;51.738;19.472;2023-03-29T10:40:26;20.80;61.10
18412;DHT22;27097;51.738;19.472;2023-03-29T10:42:58;20.80;61.40
18412;DHT22;27097;51.738;19.472;2023-03-29T10:45:27;20.80;60.10
18412;DHT22;27097;51.738;19.472;2023-03-29T10:47:55;20.80;59.30
18412;DHT22;27097;51.738;19.472;2023-03-29T10:50:24;20.80;59.50
18412;DHT22;27097;51.738;19.472;2023-03-29T10:52:51;20.80;56.00
18412;DHT22;27097;51.738;19.472;2023-03-29T10:55:19;20.80;58.10
18412;DHT22;27097;51.738;19.472;2023-03-29T10:57:54;20.80;59.00
18412;DHT22;27097;51.738;19.472;2023-03-29T11:00:32;20.80;56.50
18412;DHT22;27097;51.738;19.472;2023-03-29T11:06:24;20.90;58.50
18412;DHT22;27097;51.738;19.472;2023-03-29T11:08:56;20.80;56.80
18412;DHT22;27097;51.738;19.472;2023-03-29T11:11:47;20.80;56.70
18412;DHT22;27097;51.738;19.472;2023-03-29T11:14:27;20.80;56.50
18412;DHT22;27097;51.738;19.472;2023-03-29T11:17:02;20.80;58.60
18412;DHT22;27097;51.738;19.472;2023-03-29T11:19:43;20.80;54.50
18412;DHT22;27097;51.738;19.472;2023-03-29T11:22:21;20.80;58.20
18412;DHT22;27097;51.738;19.472;2023-03-29T11:25:08;20.80;57.70
18412;DHT22;27097;51.738;19.472;2023-03-29T11:27:42;20.80;59.10
18412;DHT22;27097;51.738;19.472;2023-03-29T11:30:17;20.90;56.40
18412;DHT22;27097;51.738;19.472;2023-03-29T11:32:51;20.80;53.00
18412;DHT22;27097;51.738;19.472;2023-03-29T11:35:36;20.90;55.70
18412;DHT22;27097;51.738;19.472;2023-03-29T11:38:14;20.90;55.10
18412;DHT22;27097;51.738;19.472;2023-03-29T11:40:51;20.90;54.40
18412;DHT22;27097;51.738;19.472;2023-03-29T11:43:23;20.90;54.80
18412;DHT22;27097;51.738;19.472;2023-03-29T11:45:56;20.90;58.30
18412;DHT22;27097;51.738;19.472;2023-03-29T11:48:30;20.90;55.80
18412;DHT22;27097;51.738;19.472;2023-03-29T11:51:02;20.90;58.40
18412;DHT22;27097;51.738;19.472;2023-03-29T11:53:38;20.90;58.50
18412;DHT22;27097;51.738;19.472;2023-03-29T11:56:12;20.90;56.50
18412;DHT22;27097;51.738;19.472;2023-03-29T11:58:43;20.80;49.70
18412;DHT22;27097;51.738;19.472;2023-03-29T12:01:14;20.80;53.40
18412;DHT22;27097;51.738;19.472;2023-03-29T12:03:45;20.90;54.30
18412;DHT22;27097;51.738;19.472;2023-03-29T12:06:18;20.90;56.30
18412;DHT22;27097;51.738;19.472;2023-03-29T12:08:51;20.90;52.90
18412;DHT22;27097;51.738;19.472;2023-03-29T12:11:24;20.90;56.10
18412;DHT22;27097;51.738;19.472;2023-03-29T12:13:55;20.90;54.90
18412;DHT22;27097;51.738;19.472;2023-03-29T12:16:27;20.90;55.30
18412;DHT22;27097;51.738;19.472;2023-03-29T12:19:00;20.90;54.00
18412;DHT22;27097;51.738;19.472;2023-03-29T12:21:29;20.90;58.50
18412;DHT22;27097;51.738;19.472;2023-03-29T12:23:58;20.90;58.00
18412;DHT22;27097;51.738;19.472;2023-03-29T12:26:41;20.90;51.70
18412;DHT22;27097;51.738;19.472;2023-03-29T12:29:20;20.90;54.20
18412;DHT22;27097;51.738;19.472;2023-03-29T12:31:53;20.90;58.10
18412;DHT22;27097;51.738;19.472;2023-03-29T12:34:32;20.90;59.70
18412;DHT22;27097;51.738;19.472;2023-03-29T12:37:23;20.90;59.90
18412;DHT22;27097;51.738;19.472;2023-03-29T12:40:02;20.90;60.60
18412;DHT22;27097;51.738;19.472;2023-03-29T12:42:31;20.90;60.10
18412;DHT22;27097;51.738;19.472;2023-03-29T12:44:59;20.90;59.90
18412;DHT22;27097;51.738;19.472;2023-03-29T12:47:31;20.90;60.00
18412;DHT22;27097;51.738;19.472;2023-03-29T12:50:00;20.90;62.00
18412;DHT22;27097;51.738;19.472;2023-03-29T12:52:31;20.90;62.50
18412;DHT22;27097;51.738;19.472;2023-03-29T12:55:01;20.80;62.70
18412;DHT22;27097;51.738;19.472;2023-03-29T12:57:39;20.80;62.60
18412;DHT22;27097;51.738;19.472;2023-03-29T13:00:18;20.80;62.00
18412;DHT22;27097;51.738;19.472;2023-03-29T13:02:59;20.80;61.70
18412;DHT22;27097;51.738;19.472;2023-03-29T13:05:28;20.80;60.80
18412;DHT22;27097;51.738;19.472;2023-03-29T13:07:55;20.80;56.10
18412;DHT22;27097;51.738;19.472;2023-03-29T13:10:36;20.80;52.20
18412;DHT22;27097;51.738;19.472;2023-03-29T13:13:12;20.80;54.10
18412;DHT22;27097;51.738;19.472;2023-03-29T13:15:41;20.80;56.20
18412;DHT22;27097;51.738;19.472;2023-03-29T13:18:22;20.80;57.30
18412;DHT22;27097;51.738;19.472;2023-03-29T13:20:59;20.80;52.00
18412;DHT22;27097;51.738;19.472;2023-03-29T13:23:38;20.80;52.00
18412;DHT22;27097;51.738;19.472;2023-03-29T13:26:19;20.90;54.60
18412;DHT22;27097;51.738;19.472;2023-03-29T13:31:44;20.80;58.80
18412;DHT22;27097;51.738;19.472;2023-03-29T13:34:23;20.80;56.80
18412;DHT22;27097;51.738;19.472;2023-03-29T13:37:01;20.80;60.70
18412;DHT22;27097;51.738;19.472;2023-03-29T13:39:33;20.70;64.80
18412;DHT22;27097;51.738;19.472;2023-03-29T13:42:16;20.70;65.50
18412;DHT22;27097;51.738;19.472;2023-03-29T13:44:45;20.70;62.30
18412;DHT22;27097;51.738;19.472;2023-03-29T13:47:27;20.70;61.80
18412;DHT22;27097;51.738;19.472;2023-03-29T13:50:05;20.70;64.90
18412;DHT22;27097;51.738;19.472;2023-03-29T13:52:40;20.70;60.10
18412;DHT22;27097;51.738;19.472;2023-03-29T13:55:14;20.60;60.60
18412;DHT22;27097;51.738;19.472;2023-03-29T13:57:50;20.60;54.40
18412;DHT22;27097;51.738;19.472;2023-03-29T14:00:21;20.60;53.10
18412;DHT22;27097;51.738;19.472;2023-03-29T14:02:50;20.60;55.00
18412;DHT22;27097;51.738;19.472;2023-03-29T14:05:22;20.50;50.80
18412;DHT22;27097;51.738;19.472;2023-03-29T14:07:52;20.50;53.30
18412;DHT22;27097;51.738;19.472;2023-03-29T14:10:23;20.50;55.80
18412;DHT22;27097;51.738;19.472;2023-03-29T14:12:53;20.50;57.20
18412;DHT22;27097;51.738;19.472;2023-03-29T14:15:23;20.50;53.70
18412;DHT22;27097;51.738;19.472;2023-03-29T14:17:55;20.50;51.60
18412;DHT22;27097;51.738;19.472;2023-03-29T14:20:22;20.40;50.10
18412;DHT22;27097;51.738;19.472;2023-03-29T14:22:50;20.40;51.30
18412;DHT22;27097;51.738;19.472;2023-03-29T14:25:19;20.40;51.60
18412;DHT22;27097;51.738;19.472;2023-03-29T14:27:47;20.40;53.90
18412;DHT22;27097;51.738;19.472;2023-03-29T14:30:22;20.40;52.80
18412;DHT22;27097;51.738;19.472;2023-03-29T14:32:51;20.40;51.80
18412;DHT22;27097;51.738;19.472;2023-03-29T14:35:18;20.40;51.60
18412;DHT22;27097;51.738;19.472;2023-03-29T14:37:47;20.30;52.90
18412;DHT22;27097;51.738;19.472;2023-03-29T14:40:17;20.30;52.40
18412;DHT22;27097;51.738;19.472;2023-03-29T14:42:45;20.30;54.90
18412;DHT22;27097;51.738;19.472;2023-03-29T14:45:15;20.30;52.90
18412;DHT22;27097;51.738;19.472;2023-03-29T14:47:44;20.30;52.40
18412;DHT22;27097;51.738;19.472;2023-03-29T14:50:17;20.30;53.80
18412;DHT22;27097;51.738;19.472;2023-03-29T14:52:45;20.20;53.20
18412;DHT22;27097;51.738;19.472;2023-03-29T14:55:13;20.20;57.70
18412;DHT22;27097;51.738;19.472;2023-03-29T14:57:43;20.20;55.30
18412;DHT22;27097;51.738;19.472;2023-03-29T15:00:20;20.20;54.20
18412;DHT22;27097;51.738;19.472;2023-03-29T15:02:54;20.20;54.40
18412;DHT22;27097;51.738;19.472;2023-03-29T15:05:24;20.20;55.30
18412;DHT22;27097;51.738;19.472;2023-03-29T15:07:51;20.20;54.60
18412;DHT22;27097;51.738;19.472;2023-03-29T15:10:21;20.20;57.70
18412;DHT22;27097;51.738;19.472;2023-03-29T15:12:48;20.20;56.50
18412;DHT22;27097;51.738;19.472;2023-03-29T15:15:16;20.10;56.60
18412;DHT22;27097;51.738;19.472;2023-03-29T15:17:43;20.10;53.60
18412;DHT22;27097;51.738;19.472;2023-03-29T15:20:17;20.10;53.80
18412;DHT22;27097;51.738;19.472;2023-03-29T15:22:55;20.10;55.40
18412;DHT22;27097;51.738;19.472;2023-03-29T15:25:25;20.10;54.20
18412;DHT22;27097;51.738;19.472;2023-03-29T15:27:54;20.10;54.20
18412;DHT22;27097;51.738;19.472;2023-03-29T15:30:31;20.10;52.70
18412;DHT22;27097;51.738;19.472;2023-03-29T15:33:13;20.10;52.50
18412;DHT22;27097;51.738;19.472;2023-03-29T15:35:43;20.00;52.60
18412;DHT22;27097;51.738;19.472;2023-03-29T15:38:12;20.00;52.00
18412;DHT22;27097;51.738;19.472;2023-03-29T15:40:39;20.00;55.30